SBOSBO FOR / SBFZ
Speedbird OnlineSpeedbird Online FOR / SBFZ

Pinto Martins International Airport
04:46 26°C

Location Fortaleza, Brazil
Latitude: -3.776279926300049
Longitude: -38.53260040283203
Web Wikipedia
Altitude 25 Meter / 82 Feet
Distance 7,152 KM / 4,444 Miles
from London.
Time Zone UTC -3 hours (America/Fortaleza)
Codes IATA: FOR
ICAO: SBFZ
Currency £1 equals BRL 5.89
Runways
RunwayLength (m)Surface
132545Asphalt
312545Asphalt
Radio
TypeDescriptionFrequency
APPFORTALEZA APP133
ATISATIS127.7
GNDGND121.95
OPSFORTALEZA OPS122.5
TWRFORTALEZA TWR129
Live ATC
METAR SBFZ 060700Z 10014KT 9999 BKN017 26/21 Q1012
TAF TAF SBFZ 060011Z 0606/0706 10008KT 9999 SCT023 TN26/0609Z TX30/0617Z BECMG 0606/0608 12013KT BECMG 0612/0614 12018KT BECMG 0616/0619 09013KT BECMG 0621/0623 10008KT RMK PHC
Weather As Of 06 Oct 2022 04:46
Description Broken clouds
Wind 26 km/h from East (100°)
Cloud Cover 75%
Precipitation Rain: none, Snow: none
Sunrise 05:17
Sunset 17:26


© 2017-2022 Speedbird Online